Time;durP1;ratioP1;P1;durP2;ratioP2;P2;SDS_P1;SDS_P2;PMS_P1;PMS_P2;Temp;Humidity;BMP_temperature;BMP_pressure;BME280_temperature;BME280_humidity;BME280_pressure;Samples;Min_cycle;Max_cycle;Signal;HPM_P1;HPM_P2
2023/11/28 00:00:11;;;;;;;3.90;1.48;;;2.20;99.90;;;;;;5013678;28;20652;-74
2023/11/28 00:02:38;;;;;;;2.08;1.40;;;2.20;99.90;;;;;;5027036;28;20407;-74
2023/11/28 00:05:04;;;;;;;2.30;1.40;;;2.20;99.90;;;;;;4993586;28;20056;-73
2023/11/28 00:07:33;;;;;;;5.28;1.50;;;2.10;99.90;;;;;;5006529;28;20033;-74
2023/11/28 00:10:03;;;;;;;1.90;1.05;;;2.20;99.90;;;;;;5019100;28;20052;-73
2023/11/28 00:12:29;;;;;;;3.92;1.48;;;2.10;99.90;;;;;;4999438;28;20038;-72
2023/11/28 00:14:55;;;;;;;5.78;1.23;;;2.20;99.90;;;;;;5024488;28;20094;-73
2023/11/28 00:17:21;;;;;;;2.97;1.25;;;2.10;99.90;;;;;;5027557;28;20042;-73
2023/11/28 00:19:46;;;;;;;2.17;1.13;;;2.10;99.90;;;;;;5011399;28;20050;-74
2023/11/28 00:22:12;;;;;;;1.60;1.10;;;2.00;99.90;;;;;;5014940;28;20461;-74
2023/11/28 00:24:38;;;;;;;3.63;1.10;;;2.10;99.90;;;;;;5026772;28;20099;-73
2023/11/28 00:27:04;;;;;;;1.52;1.05;;;2.00;99.90;;;;;;5008806;28;20041;-73
2023/11/28 00:29:30;;;;;;;3.45;1.30;;;2.00;99.90;;;;;;5012295;28;20034;-73
2023/11/28 00:31:56;;;;;;;3.60;1.83;;;2.00;99.90;;;;;;5013489;28;20399;-74
2023/11/28 00:34:25;;;;;;;6.45;1.30;;;2.00;99.90;;;;;;5027078;28;20037;-74
2023/11/28 00:36:51;;;;;;;1.13;1.02;;;2.00;99.90;;;;;;5025417;28;20069;-74
2023/11/28 00:39:17;;;;;;;2.05;1.23;;;2.00;99.90;;;;;;4998861;28;20045;-74
2023/11/28 00:41:43;;;;;;;4.07;1.35;;;2.00;99.90;;;;;;5004907;28;20129;-75
2023/11/28 00:44:09;;;;;;;1.98;1.10;;;2.00;99.90;;;;;;5026416;28;20049;-74
2023/11/28 00:46:42;;;;;;;4.43;1.52;;;2.00;99.90;;;;;;4992612;28;20047;-75
2023/11/28 00:49:14;;;;;;;5.25;1.40;;;2.00;99.90;;;;;;5011202;28;20056;-74
2023/11/28 00:51:43;;;;;;;2.70;1.17;;;2.00;99.90;;;;;;5025973;28;20095;-74
2023/11/28 00:54:10;;;;;;;2.13;1.48;;;2.00;99.90;;;;;;5008544;28;20065;-73
2023/11/28 00:56:36;;;;;;;5.15;1.30;;;2.10;99.90;;;;;;5020497;28;20590;-74
2023/11/28 00:59:01;;;;;;;2.08;1.60;;;2.00;99.90;;;;;;5014232;28;20491;-73
2023/11/28 01:01:27;;;;;;;1.50;1.40;;;2.00;99.90;;;;;;5004991;28;20045;-72
2023/11/28 01:03:53;;;;;;;2.35;1.40;;;1.90;99.90;;;;;;5003120;28;20133;-74
2023/11/28 01:06:19;;;;;;;2.38;1.60;;;2.00;99.90;;;;;;5024143;28;20052;-73
2023/11/28 01:08:44;;;;;;;1.88;1.40;;;2.00;99.90;;;;;;5007064;28;20622;-74
2023/11/28 01:11:10;;;;;;;1.45;1.27;;;2.00;99.90;;;;;;5008289;28;20029;-74
2023/11/28 01:13:36;;;;;;;3.88;1.50;;;2.20;99.90;;;;;;5009456;28;20044;-73
2023/11/28 01:16:02;;;;;;;1.90;1.10;;;2.00;99.90;;;;;;5008986;28;20116;-73
2023/11/28 01:18:28;;;;;;;1.75;1.05;;;2.00;99.90;;;;;;5001828;28;20409;-74
2023/11/28 01:20:54;;;;;;;1.88;1.10;;;2.00;99.90;;;;;;5004887;28;20057;-73
2023/11/28 01:23:19;;;;;;;1.63;1.10;;;2.00;99.90;;;;;;5008151;28;20103;-74
2023/11/28 01:25:45;;;;;;;5.40;1.40;;;2.00;99.90;;;;;;5013781;28;20065;-74
2023/11/28 01:28:11;;;;;;;2.35;1.13;;;1.70;99.90;;;;;;4997957;28;20046;-75
2023/11/28 01:30:37;;;;;;;3.67;1.33;;;2.00;99.90;;;;;;4995474;28;20140;-74
2023/11/28 01:33:03;;;;;;;2.92;1.30;;;2.00;99.90;;;;;;4997010;28;20041;-75
2023/11/28 01:35:29;;;;;;;2.13;0.93;;;2.00;99.90;;;;;;5018590;28;20416;-73
2023/11/28 01:37:54;;;;;;;1.38;0.90;;;2.10;99.90;;;;;;5021878;28;20033;-74
2023/11/28 01:40:20;;;;;;;2.08;1.05;;;2.10;99.90;;;;;;4994433;28;20041;-75
2023/11/28 01:42:47;;;;;;;1.30;0.90;;;2.10;99.90;;;;;;4988860;28;20049;-74
2023/11/28 01:45:12;;;;;;;4.75;1.23;;;2.10;99.90;;;;;;4989811;28;20045;-73
2023/11/28 01:47:39;;;;;;;2.78;1.10;;;2.10;99.90;;;;;;5006130;28;20844;-74
2023/11/28 01:50:05;;;;;;;3.20;1.00;;;2.10;99.90;;;;;;5005850;28;20103;-74
2023/11/28 01:52:32;;;;;;;2.70;1.10;;;2.10;99.90;;;;;;5006912;28;20042;-74
2023/11/28 01:55:01;;;;;;;2.33;1.00;;;2.10;99.90;;;;;;5008301;28;20040;-73
2023/11/28 01:57:28;;;;;;;1.50;0.93;;;2.10;99.90;;;;;;5006588;28;20127;-73
2023/11/28 01:59:54;;;;;;;2.95;0.90;;;2.00;99.90;;;;;;5030348;28;20069;-74
2023/11/28 02:02:20;;;;;;;3.83;1.10;;;2.00;99.90;;;;;;5005923;28;20040;-73
2023/11/28 02:04:48;;;;;;;3.97;1.30;;;2.10;99.90;;;;;;5009417;28;20102;-73
2023/11/28 02:07:14;;;;;;;2.65;1.30;;;2.10;99.90;;;;;;5009177;28;20041;-73
2023/11/28 02:09:41;;;;;;;2.65;1.08;;;2.10;99.90;;;;;;5007250;28;20066;-74
2023/11/28 02:12:07;;;;;;;2.88;1.70;;;2.10;99.90;;;;;;5005726;28;20041;-72
2023/11/28 02:14:32;;;;;;;2.67;1.13;;;2.10;99.90;;;;;;5025995;28;20029;-73
2023/11/28 02:16:58;;;;;;;1.67;1.10;;;2.10;99.90;;;;;;4999467;28;20454;-73
2023/11/28 02:19:24;;;;;;;2.80;1.23;;;2.20;99.90;;;;;;5020959;28;20049;-74
2023/11/28 02:21:50;;;;;;;2.72;1.00;;;2.20;99.90;;;;;;5005411;28;20049;-73
2023/11/28 02:24:17;;;;;;;3.28;1.10;;;2.20;99.90;;;;;;5005901;28;20550;-74
2023/11/28 02:26:43;;;;;;;2.17;1.40;;;2.40;99.90;;;;;;5003355;28;20053;-74
2023/11/28 02:29:08;;;;;;;2.35;1.27;;;2.40;99.90;;;;;;5014785;28;20495;-75
2023/11/28 02:31:35;;;;;;;3.33;1.17;;;2.40;99.90;;;;;;5020215;28;20060;-74
2023/11/28 02:34:00;;;;;;;4.55;1.42;;;2.40;99.90;;;;;;5006633;28;20044;-74
2023/11/28 02:36:27;;;;;;;2.83;1.63;;;2.50;99.90;;;;;;5021207;28;20041;-74
2023/11/28 02:38:54;;;;;;;3.58;1.48;;;2.50;99.90;;;;;;5020967;28;20121;-74
2023/11/28 02:41:19;;;;;;;4.07;1.70;;;2.50;99.90;;;;;;5006860;28;20045;-74
2023/11/28 02:43:45;;;;;;;7.28;1.83;;;2.50;99.90;;;;;;5007723;28;20052;-75
2023/11/28 02:46:11;;;;;;;2.58;1.20;;;2.60;99.90;;;;;;5007912;28;20049;-74
2023/11/28 02:48:39;;;;;;;3.50;1.30;;;2.60;99.90;;;;;;5007133;28;21063;-74
2023/11/28 02:51:05;;;;;;;3.58;1.42;;;2.60;99.90;;;;;;5021159;28;20109;-74
2023/11/28 02:53:31;;;;;;;3.67;1.48;;;2.70;99.90;;;;;;5007287;28;20093;-74
2023/11/28 02:55:56;;;;;;;2.45;1.20;;;2.70;99.90;;;;;;5006985;28;20120;-74
2023/11/28 02:58:22;;;;;;;7.85;1.63;;;2.70;99.90;;;;;;5012917;28;20120;-74
2023/11/28 03:00:48;;;;;;;4.00;1.40;;;2.70;99.90;;;;;;4993260;28;20356;-75
2023/11/28 03:03:14;;;;;;;2.80;1.30;;;2.60;99.90;;;;;;5010738;28;20037;-74
2023/11/28 03:05:39;;;;;;;4.88;1.40;;;2.70;99.90;;;;;;5007398;28;20418;-73
2023/11/28 03:08:06;;;;;;;4.35;1.17;;;2.70;99.90;;;;;;5020297;28;20049;-74
2023/11/28 03:10:31;;;;;;;4.82;1.95;;;2.60;99.90;;;;;;4992148;28;20447;-74
2023/11/28 03:12:57;;;;;;;3.28;1.45;;;2.70;99.90;;;;;;5010133;28;20021;-74
2023/11/28 03:15:23;;;;;;;2.10;1.40;;;2.70;99.90;;;;;;5004703;28;20063;-74
2023/11/28 03:17:49;;;;;;;4.78;1.83;;;2.70;99.90;;;;;;5003197;28;20496;-74
2023/11/28 03:20:15;;;;;;;2.63;1.38;;;2.70;99.90;;;;;;5010824;28;20049;-74
2023/11/28 03:22:41;;;;;;;4.35;1.50;;;3.10;99.90;;;;;;5014800;28;20136;-74
2023/11/28 03:25:08;;;;;;;3.17;1.40;;;2.70;99.90;;;;;;5011706;28;20127;-74
2023/11/28 03:27:34;;;;;;;4.15;1.63;;;2.70;99.90;;;;;;5007041;28;20057;-74
2023/11/28 03:30:00;;;;;;;3.38;1.63;;;2.80;99.90;;;;;;5006726;28;20046;-73
2023/11/28 03:32:26;;;;;;;2.75;1.55;;;2.80;99.90;;;;;;5008405;28;20131;-76
2023/11/28 03:34:52;;;;;;;5.35;1.60;;;2.70;99.90;;;;;;5022497;28;20093;-74
2023/11/28 03:37:18;;;;;;;3.22;1.83;;;2.80;99.90;;;;;;5010371;28;20116;-73
2023/11/28 03:39:44;;;;;;;3.35;1.73;;;2.80;99.90;;;;;;5022700;28;20046;-74
2023/11/28 03:42:10;;;;;;;3.70;1.50;;;2.80;99.90;;;;;;5014948;28;20044;-74
2023/11/28 03:44:36;;;;;;;4.25;2.13;;;2.80;99.90;;;;;;5008308;28;20038;-75
2023/11/28 03:47:02;;;;;;;3.08;1.40;;;2.80;99.90;;;;;;5005639;28;20049;-74
2023/11/28 03:49:28;;;;;;;4.47;1.80;;;2.80;99.90;;;;;;4995628;28;20419;-73
2023/11/28 03:51:55;;;;;;;4.90;2.00;;;2.80;99.90;;;;;;4990039;28;20045;-74
2023/11/28 03:54:21;;;;;;;5.30;1.67;;;2.80;99.90;;;;;;5010950;28;20292;-74
2023/11/28 03:56:46;;;;;;;5.38;1.88;;;2.80;99.90;;;;;;5024507;28;20033;-74
2023/11/28 03:59:12;;;;;;;4.35;1.80;;;2.70;99.90;;;;;;5030315;28;20045;-74
2023/11/28 04:01:38;;;;;;;5.20;2.00;;;2.80;99.90;;;;;;5013200;28;20124;-73
2023/11/28 04:04:04;;;;;;;3.17;1.63;;;2.80;99.90;;;;;;5013620;28;20207;-74
2023/11/28 04:06:30;;;;;;;2.45;1.80;;;2.80;99.90;;;;;;4994138;28;20044;-74
2023/11/28 04:08:56;;;;;;;2.85;2.05;;;2.80;99.90;;;;;;5014091;28;20049;-74
2023/11/28 04:11:22;;;;;;;4.53;1.85;;;2.90;99.90;;;;;;4994299;28;20082;-74
2023/11/28 04:13:48;;;;;;;6.20;2.30;;;2.80;99.90;;;;;;5006429;28;20131;-74
2023/11/28 04:16:17;;;;;;;3.15;1.90;;;2.90;99.90;;;;;;5006888;28;20508;-74
2023/11/28 04:18:46;;;;;;;3.95;1.92;;;2.80;99.90;;;;;;4993404;28;20048;-74
2023/11/28 04:21:21;;;;;;;3.33;2.27;;;2.80;99.90;;;;;;5025509;28;20069;-74
2023/11/28 04:23:47;;;;;;;6.00;2.10;;;2.80;99.90;;;;;;5015383;28;20284;-74
2023/11/28 04:26:13;;;;;;;5.53;2.00;;;3.00;99.90;;;;;;5007821;28;20545;-75
2023/11/28 04:28:39;;;;;;;4.70;2.08;;;2.80;99.90;;;;;;5007437;28;20048;-74
2023/11/28 04:31:05;;;;;;;5.88;1.98;;;2.80;99.90;;;;;;5005795;28;20051;-74
2023/11/28 04:33:31;;;;;;;4.80;2.20;;;2.70;99.90;;;;;;5019622;28;20093;-74
2023/11/28 04:35:57;;;;;;;3.80;1.98;;;2.80;99.90;;;;;;5010908;28;20108;-74
2023/11/28 04:38:26;;;;;;;3.45;1.90;;;2.70;99.90;;;;;;5028298;28;20108;-75
2023/11/28 04:40:51;;;;;;;3.72;1.90;;;2.90;99.90;;;;;;5019115;28;20582;-74
2023/11/28 04:43:17;;;;;;;7.00;2.20;;;2.70;99.90;;;;;;5010776;28;20052;-74
2023/11/28 04:45:43;;;;;;;5.63;2.42;;;2.60;99.90;;;;;;5009970;28;20472;-72
2023/11/28 04:48:08;;;;;;;3.70;2.25;;;2.70;99.90;;;;;;5007753;28;20132;-74
2023/11/28 04:50:34;;;;;;;6.95;2.47;;;2.60;99.90;;;;;;5013494;28;20047;-73
2023/11/28 04:53:00;;;;;;;3.47;2.30;;;2.70;99.90;;;;;;5011997;28;20033;-75
2023/11/28 04:55:25;;;;;;;5.47;1.70;;;2.60;99.90;;;;;;5010034;28;20455;-75
2023/11/28 04:57:51;;;;;;;3.80;2.00;;;2.60;99.90;;;;;;5022985;28;20042;-74
2023/11/28 05:00:17;;;;;;;3.72;1.67;;;2.60;99.90;;;;;;5027898;28;20048;-74
2023/11/28 05:02:43;;;;;;;3.58;1.92;;;2.70;99.90;;;;;;5003979;28;20637;-75
2023/11/28 05:05:08;;;;;;;3.55;2.13;;;2.70;99.90;;;;;;5009750;28;20599;-75
2023/11/28 05:07:37;;;;;;;4.88;2.05;;;2.70;99.90;;;;;;5009212;28;20038;-75
2023/11/28 05:10:03;;;;;;;2.95;2.08;;;2.60;99.90;;;;;;4998441;28;20206;-75
2023/11/28 05:12:30;;;;;;;6.20;2.00;;;2.70;99.90;;;;;;5021612;28;20077;-74
2023/11/28 05:14:58;;;;;;;3.50;1.85;;;2.70;99.90;;;;;;5011316;28;20107;-74
2023/11/28 05:17:24;;;;;;;3.63;1.80;;;2.60;99.90;;;;;;5003762;28;20073;-74
2023/11/28 05:19:50;;;;;;;4.80;2.30;;;2.50;99.90;;;;;;5013942;28;20416;-74
2023/11/28 05:22:16;;;;;;;7.05;2.65;;;2.60;99.90;;;;;;4993399;28;20057;-74
2023/11/28 05:24:41;;;;;;;2.75;2.28;;;2.50;99.90;;;;;;5004449;28;20116;-74
2023/11/28 05:27:07;;;;;;;3.58;2.35;;;2.40;99.90;;;;;;5008490;28;20077;-74
2023/11/28 05:29:33;;;;;;;3.08;2.40;;;2.50;99.90;;;;;;5007864;28;20542;-75
2023/11/28 05:31:58;;;;;;;6.35;2.33;;;2.50;99.90;;;;;;5001439;28;20046;-74
2023/11/28 05:34:24;;;;;;;2.30;1.98;;;2.40;99.90;;;;;;5007794;28;20049;-74
2023/11/28 05:36:50;;;;;;;5.80;2.30;;;2.50;99.90;;;;;;5006111;28;20052;-74
2023/11/28 05:39:16;;;;;;;4.90;2.00;;;2.50;99.90;;;;;;5006930;28;20410;-74
2023/11/28 05:41:42;;;;;;;7.60;2.40;;;2.60;99.90;;;;;;5006457;28;20049;-74
2023/11/28 05:44:10;;;;;;;4.97;2.30;;;2.60;99.90;;;;;;5009720;28;20045;-74
2023/11/28 05:46:36;;;;;;;4.55;2.55;;;2.70;99.90;;;;;;5000912;28;20046;-74
2023/11/28 05:49:02;;;;;;;2.67;1.98;;;2.70;99.90;;;;;;5011387;28;20047;-73
2023/11/28 05:51:27;;;;;;;2.63;2.00;;;2.80;99.90;;;;;;5003442;28;20152;-74
2023/11/28 05:53:53;;;;;;;5.03;2.55;;;2.70;99.90;;;;;;5001292;28;20500;-75
2023/11/28 05:56:19;;;;;;;3.75;2.45;;;2.70;99.90;;;;;;5007360;28;20041;-73
2023/11/28 05:58:45;;;;;;;4.70;2.30;;;2.80;99.90;;;;;;5008139;28;20387;-74
2023/11/28 06:01:14;;;;;;;2.92;2.15;;;2.70;99.90;;;;;;5006082;28;20041;-74
2023/11/28 06:03:40;;;;;;;6.32;2.67;;;2.80;99.90;;;;;;4980685;28;20104;-74
2023/11/28 06:06:07;;;;;;;4.55;2.42;;;2.80;99.90;;;;;;5001799;28;20547;-74
2023/11/28 06:08:32;;;;;;;2.60;2.28;;;2.80;99.90;;;;;;5002415;28;20096;-74
2023/11/28 06:10:58;;;;;;;6.07;2.60;;;2.80;99.90;;;;;;5002061;28;20093;-74
2023/11/28 06:13:24;;;;;;;3.50;2.45;;;2.80;99.90;;;;;;5006765;28;20041;-74
2023/11/28 06:15:50;;;;;;;6.97;2.45;;;2.70;99.90;;;;;;5009221;28;20041;-73
2023/11/28 06:18:17;;;;;;;4.60;2.50;;;2.80;99.90;;;;;;4982096;28;20041;-74
2023/11/28 06:20:43;;;;;;;5.45;2.80;;;2.70;99.90;;;;;;5004469;28;20053;-74
2023/11/28 06:23:08;;;;;;;4.22;2.38;;;2.70;99.90;;;;;;5004300;28;20121;-75
2023/11/28 06:25:34;;;;;;;4.10;2.20;;;2.80;99.90;;;;;;5018310;28;20579;-75
2023/11/28 06:28:00;;;;;;;4.38;2.20;;;2.80;99.90;;;;;;5001199;28;20038;-74
2023/11/28 06:30:25;;;;;;;2.80;2.38;;;2.80;99.90;;;;;;5002846;28;20069;-74
2023/11/28 06:32:51;;;;;;;2.50;2.17;;;2.80;99.90;;;;;;5011650;28;20045;-74
2023/11/28 06:35:17;;;;;;;5.15;2.33;;;2.80;99.90;;;;;;5006885;28;20641;-74
2023/11/28 06:37:43;;;;;;;6.18;2.47;;;2.80;99.90;;;;;;4995869;28;20125;-74
2023/11/28 06:40:09;;;;;;;3.78;2.20;;;2.70;99.90;;;;;;5021626;28;20038;-74
2023/11/28 06:42:35;;;;;;;4.95;2.33;;;2.70;99.90;;;;;;5012892;28;20041;-74
2023/11/28 06:45:02;;;;;;;3.40;2.00;;;2.70;99.90;;;;;;5009507;28;20124;-74
2023/11/28 06:47:29;;;;;;;4.00;2.20;;;2.80;99.90;;;;;;5012870;28;20053;-74
2023/11/28 06:49:56;;;;;;;2.55;2.15;;;2.80;99.90;;;;;;5011087;28;20120;-74
2023/11/28 06:52:22;;;;;;;3.50;2.30;;;2.80;99.90;;;;;;5009390;28;20073;-75
2023/11/28 06:54:47;;;;;;;4.70;1.77;;;2.80;99.90;;;;;;5008221;28;20077;-74
2023/11/28 06:57:13;;;;;;;3.53;1.75;;;2.70;99.90;;;;;;4992808;28;20044;-74
2023/11/28 06:59:39;;;;;;;2.67;1.60;;;2.70;99.90;;;;;;5005595;28;20431;-75
2023/11/28 07:02:04;;;;;;;2.97;1.50;;;2.70;99.90;;;;;;5008224;28;20080;-74
2023/11/28 07:04:30;;;;;;;3.78;1.80;;;2.70;99.90;;;;;;5011900;28;20052;-75
2023/11/28 07:06:56;;;;;;;4.60;2.75;;;2.70;99.90;;;;;;5005674;28;20044;-74
2023/11/28 07:09:22;;;;;;;4.00;1.98;;;2.70;99.90;;;;;;5012253;28;20050;-74
2023/11/28 07:11:52;;;;;;;2.72;1.65;;;2.80;99.90;;;;;;5014490;28;20246;-74
2023/11/28 07:14:18;;;;;;;2.30;1.80;;;2.80;99.90;;;;;;5021223;28;20080;-75
2023/11/28 07:16:44;;;;;;;3.88;1.90;;;2.80;99.90;;;;;;5011675;28;20112;-74
2023/11/28 07:19:10;;;;;;;3.97;2.42;;;2.80;99.90;;;;;;5004470;28;20034;-75
2023/11/28 07:21:36;;;;;;;5.15;1.98;;;2.80;99.90;;;;;;5010864;28;20812;-74
2023/11/28 07:24:02;;;;;;;3.20;1.88;;;2.80;99.90;;;;;;4994575;28;20403;-75
2023/11/28 07:26:28;;;;;;;2.50;1.70;;;2.70;99.90;;;;;;5019142;28;20124;-75
2023/11/28 07:28:54;;;;;;;4.45;1.70;;;2.70;99.90;;;;;;5016166;28;20056;-74
2023/11/28 07:31:20;;;;;;;3.22;1.55;;;2.80;99.90;;;;;;5008097;28;20037;-73
2023/11/28 07:33:45;;;;;;;5.18;1.75;;;2.60;99.90;;;;;;5021914;28;20056;-76
2023/11/28 07:36:12;;;;;;;5.00;1.55;;;2.60;99.90;;;;;;4996364;28;20055;-75
2023/11/28 07:38:38;;;;;;;4.40;1.70;;;2.60;99.90;;;;;;4994406;28;20041;-76
2023/11/28 07:41:05;;;;;;;2.05;1.70;;;2.60;99.90;;;;;;5026540;28;20052;-76
2023/11/28 07:43:33;;;;;;;4.05;1.73;;;2.60;99.90;;;;;;5008611;28;20041;-75
2023/11/28 07:45:59;;;;;;;6.03;2.00;;;2.60;99.90;;;;;;5022057;28;20046;-76
2023/11/28 07:48:24;;;;;;;4.70;2.10;;;2.50;99.90;;;;;;5008484;28;20045;-76
2023/11/28 07:50:50;;;;;;;6.10;2.35;;;2.50;99.90;;;;;;5009649;28;20052;-76
2023/11/28 07:53:16;;;;;;;3.63;1.98;;;2.50;99.90;;;;;;5020337;28;20553;-75
2023/11/28 07:55:41;;;;;;;3.50;2.10;;;2.50;99.90;;;;;;5007388;28;20046;-75
2023/11/28 07:58:07;;;;;;;3.90;2.28;;;2.50;99.90;;;;;;4994831;28;20508;-75
2023/11/28 08:00:33;;;;;;;4.53;2.47;;;2.50;99.90;;;;;;5016673;28;20358;-76
2023/11/28 08:03:00;;;;;;;5.22;2.15;;;2.50;99.90;;;;;;5011922;28;20142;-75
2023/11/28 08:05:26;;;;;;;4.32;2.05;;;2.50;99.90;;;;;;4993749;28;20127;-75
2023/11/28 08:07:51;;;;;;;2.97;1.83;;;2.70;99.90;;;;;;5013321;28;20131;-75
2023/11/28 08:10:17;;;;;;;7.47;2.40;;;2.70;99.90;;;;;;5013893;28;20122;-75
2023/11/28 08:12:43;;;;;;;5.28;2.17;;;2.60;99.90;;;;;;5013252;28;20045;-75
2023/11/28 08:15:10;;;;;;;3.97;2.60;;;2.70;99.90;;;;;;4997508;28;20517;-75
2023/11/28 08:17:35;;;;;;;6.18;2.17;;;2.60;99.90;;;;;;4999548;28;20519;-76
2023/11/28 08:20:02;;;;;;;4.00;2.40;;;2.60;99.90;;;;;;4987963;28;20442;-75
2023/11/28 08:22:29;;;;;;;6.43;2.70;;;2.70;99.90;;;;;;5013328;28;20100;-76
2023/11/28 08:24:55;;;;;;;4.35;2.67;;;2.70;99.90;;;;;;5025995;28;20050;-75
2023/11/28 08:27:21;;;;;;;9.23;2.92;;;2.80;99.90;;;;;;5015723;28;20041;-75
2023/11/28 08:29:47;;;;;;;5.18;2.47;;;2.90;99.90;;;;;;5024564;28;20034;-76
2023/11/28 08:32:14;;;;;;;3.85;2.17;;;2.90;99.90;;;;;;5021457;28;20107;-77
2023/11/28 08:34:40;;;;;;;5.47;2.50;;;2.80;99.90;;;;;;5009682;28;20123;-75
2023/11/28 08:37:05;;;;;;;5.38;2.67;;;3.00;99.90;;;;;;5013603;28;20041;-76
2023/11/28 08:39:31;;;;;;;3.88;2.80;;;2.80;99.90;;;;;;5006752;28;20041;-75
2023/11/28 08:41:57;;;;;;;5.93;2.90;;;2.80;99.90;;;;;;5023458;28;20130;-76
2023/11/28 08:44:23;;;;;;;12.20;3.28;;;2.80;99.90;;;;;;5001480;28;20095;-75
2023/11/28 08:46:48;;;;;;;5.15;2.40;;;2.80;99.90;;;;;;5009884;28;20053;-74
2023/11/28 08:49:15;;;;;;;5.68;2.67;;;2.80;99.90;;;;;;5015572;28;20045;-75
2023/11/28 08:51:42;;;;;;;5.22;2.78;;;2.80;99.90;;;;;;5012383;28;20045;-75
2023/11/28 08:54:08;;;;;;;4.97;2.65;;;2.80;99.90;;;;;;5021516;28;20099;-75
2023/11/28 08:56:33;;;;;;;6.53;2.92;;;2.80;99.90;;;;;;5009567;28;20802;-75
2023/11/28 08:58:59;;;;;;;4.57;2.35;;;2.90;99.90;;;;;;4995975;28;20064;-74
2023/11/28 09:01:25;;;;;;;6.80;2.38;;;2.90;99.90;;;;;;5012469;28;20124;-75
2023/11/28 09:03:51;;;;;;;7.32;2.28;;;2.90;99.90;;;;;;5013054;28;20044;-75
2023/11/28 09:06:17;;;;;;;4.35;2.38;;;2.90;99.90;;;;;;5011561;28;20034;-74
2023/11/28 09:08:43;;;;;;;5.25;2.20;;;2.80;99.90;;;;;;5013076;28;20050;-75
2023/11/28 09:11:09;;;;;;;7.03;2.30;;;2.80;99.90;;;;;;5012135;28;20094;-77
2023/11/28 09:13:35;;;;;;;6.63;2.30;;;2.80;99.90;;;;;;4999837;28;20037;-76
2023/11/28 09:16:05;;;;;;;3.95;2.40;;;2.80;99.90;;;;;;5004253;28;20037;-75
2023/11/28 09:18:32;;;;;;;5.75;2.60;;;2.90;99.90;;;;;;5016118;28;20046;-75
2023/11/28 09:20:57;;;;;;;3.53;1.92;;;2.90;99.90;;;;;;4987935;28;20056;-75
2023/11/28 09:23:24;;;;;;;3.13;1.92;;;2.90;99.90;;;;;;4985541;28;20151;-75
2023/11/28 09:25:53;;;;;;;4.20;2.33;;;2.90;99.90;;;;;;5004488;28;20095;-77
2023/11/28 09:28:19;;;;;;;4.88;2.17;;;3.40;99.90;;;;;;5015120;28;20049;-75
2023/11/28 09:30:44;;;;;;;6.63;2.05;;;3.00;99.90;;;;;;4997163;28;20033;-75
2023/11/28 09:33:10;;;;;;;7.70;2.42;;;2.90;99.90;;;;;;4996639;28;20041;-74
2023/11/28 09:35:36;;;;;;;4.95;2.03;;;3.00;99.90;;;;;;5020727;28;20481;-75
2023/11/28 09:38:02;;;;;;;5.72;1.80;;;3.10;99.90;;;;;;4998731;28;20049;-76
2023/11/28 09:40:28;;;;;;;4.55;2.50;;;2.90;99.90;;;;;;5010095;28;20029;-75
2023/11/28 09:42:56;;;;;;;5.05;2.42;;;3.10;99.90;;;;;;4993876;28;20045;-74
2023/11/28 09:45:22;;;;;;;6.05;2.58;;;3.10;99.90;;;;;;5014539;28;20034;-74
2023/11/28 09:47:50;;;;;;;5.63;2.47;;;3.10;99.90;;;;;;5010026;28;20041;-75
2023/11/28 09:50:20;;;;;;;4.38;2.00;;;3.10;99.90;;;;;;5010861;28;20080;-75
2023/11/28 09:52:47;;;;;;;4.90;2.30;;;3.30;99.90;;;;;;5010680;28;20046;-75
2023/11/28 09:55:15;;;;;;;4.47;2.00;;;3.50;99.90;;;;;;5007569;28;20045;-74
2023/11/28 09:57:48;;;;;;;4.85;2.15;;;3.60;99.90;;;;;;5007534;28;20491;-74
2023/11/28 10:00:26;;;;;;;5.00;2.28;;;3.60;99.90;;;;;;5011621;28;20041;-75
2023/11/28 10:02:54;;;;;;;3.92;1.90;;;3.80;99.90;;;;;;4976280;28;20103;-75
2023/11/28 10:05:20;;;;;;;2.58;1.75;;;3.90;99.90;;;;;;5003143;28;20037;-76
2023/11/28 10:07:53;;;;;;;3.00;1.75;;;4.00;99.90;;;;;;5003523;28;20045;-75
2023/11/28 10:10:23;;;;;;;4.40;2.08;;;4.10;99.90;;;;;;5009442;28;20050;-75
2023/11/28 10:12:51;;;;;;;3.22;1.73;;;4.20;99.90;;;;;;5009121;28;20048;-75
2023/11/28 10:15:17;;;;;;;3.13;1.30;;;4.20;99.90;;;;;;5006449;28;20032;-75
2023/11/28 10:17:43;;;;;;;6.88;1.90;;;4.10;99.90;;;;;;5011224;28;20774;-74
2023/11/28 10:20:10;;;;;;;2.70;1.90;;;4.10;99.90;;;;;;4996225;28;20037;-74
2023/11/28 10:22:39;;;;;;;2.72;1.60;;;4.00;99.90;;;;;;5010808;28;20033;-75
2023/11/28 10:25:10;;;;;;;7.72;1.60;;;3.90;99.90;;;;;;4982635;28;20049;-75
2023/11/28 10:27:43;;;;;;;5.20;1.52;;;3.90;99.90;;;;;;4992883;28;20088;-73
2023/11/28 10:30:10;;;;;;;3.13;1.80;;;3.90;99.90;;;;;;5015652;28;20037;-74
2023/11/28 10:32:37;;;;;;;2.13;1.60;;;3.80;99.90;;;;;;5009824;28;20075;-74
2023/11/28 10:35:05;;;;;;;3.13;2.20;;;3.80;99.90;;;;;;4993665;28;20168;-75
2023/11/28 10:37:37;;;;;;;6.35;1.60;;;3.80;99.90;;;;;;5011542;28;20487;-77
2023/11/28 10:40:10;;;;;;;2.95;1.33;;;3.90;99.90;;;;;;5022752;28;20459;-75
2023/11/28 10:42:37;;;;;;;3.42;2.05;;;3.90;99.90;;;;;;5011853;28;20124;-75
2023/11/28 10:45:06;;;;;;;2.22;1.73;;;3.90;99.90;;;;;;5010855;28;20791;-75
2023/11/28 10:47:35;;;;;;;2.35;1.70;;;3.90;99.90;;;;;;5001201;28;20045;-76
2023/11/28 10:50:03;;;;;;;11.48;2.78;;;3.90;99.90;;;;;;5003314;28;21690;-75
2023/11/28 10:52:31;;;;;;;2.38;1.80;;;3.90;99.90;;;;;;5008424;28;20065;-75
2023/11/28 10:55:04;;;;;;;4.43;1.88;;;3.90;99.90;;;;;;5019564;28;20041;-75
2023/11/28 10:57:31;;;;;;;4.03;1.73;;;3.90;99.90;;;;;;5008222;28;20073;-75
2023/11/28 11:00:02;;;;;;;5.03;1.73;;;3.70;99.90;;;;;;5012943;28;20068;-75
2023/11/28 11:02:29;;;;;;;3.85;1.80;;;3.70;99.90;;;;;;5010863;28;20037;-75
2023/11/28 11:04:55;;;;;;;5.07;1.60;;;3.70;99.90;;;;;;4993074;28;20052;-76
2023/11/28 11:07:21;;;;;;;3.42;1.85;;;3.90;99.90;;;;;;5009890;28;20040;-76
2023/11/28 11:09:48;;;;;;;4.40;2.10;;;4.10;99.90;;;;;;4994233;28;20041;-76
2023/11/28 11:12:16;;;;;;;3.58;1.55;;;4.20;99.90;;;;;;5009656;28;20073;-76
2023/11/28 11:15:03;;;;;;;3.83;2.13;;;4.40;99.90;;;;;;5011024;28;20519;-75
2023/11/28 11:17:50;;;;;;;4.45;1.40;;;4.60;99.90;;;;;;5011922;28;20041;-76
2023/11/28 11:20:18;;;;;;;1.92;1.40;;;4.40;99.90;;;;;;5008550;28;20723;-75
2023/11/28 11:22:48;;;;;;;4.45;1.58;;;4.40;99.90;;;;;;5007496;28;20048;-74
2023/11/28 11:25:14;;;;;;;4.60;1.67;;;4.20;99.90;;;;;;5008087;28;20071;-74
2023/11/28 11:27:40;;;;;;;4.03;1.75;;;4.20;99.90;;;;;;5009394;28;20053;-75
2023/11/28 11:30:07;;;;;;;2.58;1.50;;;4.10;99.90;;;;;;5010898;28;20504;-75
2023/11/28 11:32:36;;;;;;;2.55;1.60;;;4.10;99.90;;;;;;5009342;28;20126;-75
2023/11/28 11:35:08;;;;;;;4.60;1.65;;;4.10;99.90;;;;;;5020616;28;20103;-75
2023/11/28 11:37:36;;;;;;;4.90;1.60;;;4.10;99.90;;;;;;5021332;28;20037;-75
2023/11/28 11:40:02;;;;;;;2.00;1.60;;;4.00;99.90;;;;;;5010708;28;20044;-74
2023/11/28 11:42:35;;;;;;;5.20;1.85;;;4.00;99.90;;;;;;5026900;28;20037;-74
2023/11/28 11:45:06;;;;;;;13.52;2.33;;;4.00;99.90;;;;;;5014968;28;20137;-75
2023/11/28 11:47:36;;;;;;;3.08;2.13;;;4.00;99.90;;;;;;5013830;28;20091;-75
2023/11/28 11:50:07;;;;;;;2.85;1.42;;;4.00;99.90;;;;;;5013786;28;20037;-74
2023/11/28 11:52:33;;;;;;;2.78;1.98;;;3.90;99.90;;;;;;5012597;28;20049;-75
2023/11/28 11:55:07;;;;;;;2.97;1.45;;;3.90;99.90;;;;;;5014754;28;20089;-74
2023/11/28 11:57:34;;;;;;;4.20;1.75;;;3.90;99.90;;;;;;5015732;28;20052;-78
2023/11/28 12:00:00;;;;;;;2.70;1.80;;;3.90;99.90;;;;;;5023884;28;20052;-78
2023/11/28 12:02:40;;;;;;;3.58;1.88;;;4.00;99.90;;;;;;5012379;28;20079;-75
2023/11/28 12:05:07;;;;;;;4.60;2.05;;;4.00;99.90;;;;;;5000902;28;20826;-76
2023/11/28 12:07:33;;;;;;;3.03;2.25;;;4.10;99.90;;;;;;5006562;28;20516;-76
2023/11/28 12:10:06;;;;;;;7.40;2.35;;;4.00;99.90;;;;;;5004558;28;20608;-76
2023/11/28 12:12:32;;;;;;;4.35;2.10;;;4.00;99.90;;;;;;4972316;28;20193;-76
2023/11/28 12:14:58;;;;;;;2.72;1.70;;;3.90;99.90;;;;;;5012561;28;20041;-74
2023/11/28 12:17:24;;;;;;;2.63;1.60;;;4.00;99.90;;;;;;5019865;28;20037;-76
2023/11/28 12:19:52;;;;;;;8.00;2.10;;;4.00;99.90;;;;;;5008951;28;20041;-76
2023/11/28 12:22:18;;;;;;;5.32;2.20;;;3.90;99.90;;;;;;5018405;28;20400;-75
2023/11/28 12:24:44;;;;;;;3.35;1.55;;;3.90;99.90;;;;;;5023559;28;20053;-76
2023/11/28 12:27:10;;;;;;;2.50;1.75;;;4.10;99.90;;;;;;5010759;28;20050;-76
2023/11/28 12:29:37;;;;;;;2.20;1.73;;;3.90;99.90;;;;;;5022482;28;20042;-75
2023/11/28 12:32:07;;;;;;;5.32;1.48;;;3.80;99.90;;;;;;5013049;28;21614;-75
2023/11/28 12:34:35;;;;;;;3.42;1.88;;;3.80;99.90;;;;;;5004533;28;20041;-75
2023/11/28 12:37:03;;;;;;;2.78;1.80;;;3.70;99.90;;;;;;5004327;28;20111;-75
2023/11/28 12:39:29;;;;;;;3.83;2.35;;;3.70;99.90;;;;;;5009338;28;20164;-75
2023/11/28 12:41:56;;;;;;;5.47;1.92;;;3.70;99.90;;;;;;5008927;28;20076;-77
2023/11/28 12:44:28;;;;;;;7.13;1.90;;;3.80;99.90;;;;;;4982231;28;20037;-76
2023/11/28 12:46:55;;;;;;;2.25;2.05;;;3.70;99.90;;;;;;5001909;28;20104;-76
2023/11/28 12:49:21;;;;;;;6.93;2.10;;;3.70;99.90;;;;;;5004116;28;20048;-77
2023/11/28 12:51:48;;;;;;;5.00;2.40;;;3.80;99.90;;;;;;5015571;28;20115;-76
2023/11/28 12:54:14;;;;;;;5.00;2.15;;;3.70;99.90;;;;;;5013868;28;20037;-77